CA-0700 weather

CLOSED Amaranth Airstrip
Ontario, Canada

Public forecast

Using degrees Celsius for public forecast. Weather courtesy of forecast.io.

Closest aviation weather report (METAR) to Amaranth Airstrip

Closest report is CFB Borden, 22.7 nm (42.0 km) NE. Retrieved 2019/10/18 10:30 UTC (0 seconds ago):

CYBN 181030Z AUTO 33006KT 310V010 9SM OVC023 05/02 A2995

Closest aviation forecast (TAF) to Amaranth Airstrip

Closest forecast is CFB Borden, 22.7 nm (42.0 km) NE. Retrieved 2019/10/18 10:18 UTC (2 minutes ago):

TAF TAF CYBN 181015Z 1810/1822 33008G18KT P6SM BKN020 TEMPO 1810/1816 BKN025 FM181600 33012KT P6SM FEW025 SCT180 RMK FCST BASED ON AUTO OBS NXT FCST BY 181200Z